Leting, China
Current Conditions -  °F | °C
As of 10:00 PM on Thursday 29 Jan 2015 (Local Time) from ZBTJ Reporting Station
Clear Clear  
Wind Chill: 19°   Ceiling: Unl
Heat Index: 30°   Visibility: 6mi
Dew Point:   Wind: 16mph
Humidity: 27%   Direction: 330°NNW
Pressure: 30.45"   Gusts: NA
Location:  39.43°N, 118.9°E
Report Text: ZBTJ 291400Z 33007MPS CAVOK M01/M18 Q1031 NOSIG
Loading
Personal Weather Stations






























Interactive Weather Map New forecast layout! Learn more

10-Day Weather Forecast

Advertisements
Track Severe Weather on mobile